Time,TemperatureF,DewpointF,PressureIn,WindDirection,WindDirectionDegrees,WindSpeedMPH,WindSpeedGustMPH,Humidity,HourlyPrecipIn,Conditions,Clouds,dailyrainin,SoftwareType,DateUTC
2014-07-10 00:03:00,79.5,57.5,29.68,SW,216,3.6,4.0,47,0.00,,---,0.00,VWS V14.01,2014-07-09 21:03:00,
2014-07-10 00:08:00,79.3,57.4,29.68,SSW,208,6.3,8.3,47,0.00,,---,0.00,VWS V14.01,2014-07-09 21:08:00,
2014-07-10 00:13:00,79.2,57.2,29.68,SSW,200,6.3,6.3,47,0.00,,---,0.00,VWS V14.01,2014-07-09 21:13:00,
2014-07-10 00:18:00,79.0,57.0,29.68,SSW,204,2.2,3.6,47,0.00,,---,0.00,VWS V14.01,2014-07-09 21:18:00,
2014-07-10 00:23:00,79.0,57.0,29.68,SW,217,3.6,4.0,47,0.00,,---,0.00,VWS V14.01,2014-07-09 21:23:00,
2014-07-10 00:28:00,79.0,57.0,29.68,SSW,205,4.0,5.4,47,0.00,,---,0.00,VWS V14.01,2014-07-09 21:28:00,
2014-07-10 00:33:00,78.8,56.9,29.68,SW,216,3.6,5.4,47,0.00,,---,0.00,VWS V14.01,2014-07-09 21:33:00,
2014-07-10 00:38:00,78.8,57.5,29.68,WSW,238,5.8,5.8,48,0.00,,---,0.00,VWS V14.01,2014-07-09 21:38:00,
2014-07-10 00:43:00,79.0,57.0,29.68,SSW,203,4.9,4.9,47,0.00,,---,0.00,VWS V14.01,2014-07-09 21:43:00,
2014-07-10 00:48:00,79.0,57.0,29.68,SSW,210,3.1,6.3,47,0.00,,---,0.00,VWS V14.01,2014-07-09 21:48:00,
2014-07-10 00:53:00,79.2,57.2,29.68,SSW,210,0.0,0.0,47,0.00,,---,0.00,VWS V14.01,2014-07-09 21:53:00,
2014-07-10 00:58:00,79.2,57.2,29.68,SW,221,0.0,0.0,47,0.00,,---,0.00,VWS V14.01,2014-07-09 21:58:00,
2014-07-10 01:03:00,79.2,57.2,29.68,West,259,0.0,0.0,47,0.00,,---,0.00,VWS V14.01,2014-07-09 22:03:00,
2014-07-10 01:08:00,79.2,57.2,29.68,West,264,3.1,3.1,47,0.00,,---,0.00,VWS V14.01,2014-07-09 22:08:00,
2014-07-10 01:13:00,79.0,56.5,29.68,WNW,302,4.5,4.5,46,0.00,,---,0.00,VWS V14.01,2014-07-09 22:13:00,
2014-07-10 01:18:00,79.0,56.5,29.68,West,271,0.0,0.0,46,0.00,,---,0.00,VWS V14.01,2014-07-09 22:18:00,
2014-07-10 01:23:00,79.0,56.5,29.68,SW,222,0.0,0.0,46,0.00,,---,0.00,VWS V14.01,2014-07-09 22:23:00,
2014-07-10 01:28:00,78.6,56.7,29.68,South,189,4.0,4.0,47,0.00,,---,0.00,VWS V14.01,2014-07-09 22:28:00,
2014-07-10 01:33:00,78.3,56.4,29.68,SSW,202,0.0,0.0,47,0.00,,---,0.00,VWS V14.01,2014-07-09 22:33:00,
2014-07-10 01:38:00,78.1,56.8,29.68,WSW,238,0.0,0.0,48,0.00,,---,0.00,VWS V14.01,2014-07-09 22:38:00,
2014-07-10 01:43:00,77.9,56.7,29.68,West,259,4.0,4.0,48,0.00,,---,0.00,VWS V14.01,2014-07-09 22:43:00,
2014-07-10 01:48:00,78.1,56.8,29.68,WSW,252,3.6,4.0,48,0.00,,---,0.00,VWS V14.01,2014-07-09 22:48:00,
2014-07-10 01:53:00,78.3,57.0,29.68,WSW,250,3.1,4.0,48,0.00,,---,0.00,VWS V14.01,2014-07-09 22:53:00,
2014-07-10 01:58:00,78.4,57.1,29.68,WSW,247,0.0,0.0,48,0.00,,---,0.00,VWS V14.01,2014-07-09 22:58:00,
2014-07-10 02:03:00,78.4,57.1,29.68,SW,230,4.0,4.9,48,0.00,,---,0.00,VWS V14.01,2014-07-09 23:03:00,
2014-07-10 02:08:00,78.3,57.0,29.68,SW,220,0.0,0.0,48,0.00,,---,0.00,VWS V14.01,2014-07-09 23:08:00,
2014-07-10 02:13:00,77.9,56.7,29.68,South,190,0.0,0.0,48,0.00,,---,0.00,VWS V14.01,2014-07-09 23:13:00,
2014-07-10 02:18:00,77.7,56.5,29.68,South,188,0.0,0.0,48,0.00,,---,0.00,VWS V14.01,2014-07-09 23:18:00,
2014-07-10 02:23:00,77.4,56.2,29.68,SSW,201,0.0,3.1,48,0.00,,---,0.00,VWS V14.01,2014-07-09 23:23:00,
2014-07-10 02:28:00,77.0,56.4,29.68,SSW,198,3.6,4.9,49,0.00,,---,0.00,VWS V14.01,2014-07-09 23:28:00,
2014-07-10 02:33:00,76.8,56.8,29.68,South,181,3.1,4.0,50,0.00,,---,0.00,VWS V14.01,2014-07-09 23:33:00,
2014-07-10 02:38:00,76.6,57.2,29.68,SSW,202,5.4,5.8,51,0.00,,---,0.00,VWS V14.01,2014-07-09 23:38:00,
2014-07-10 02:43:00,76.5,57.0,29.68,SSW,200,4.0,4.9,51,0.00,,---,0.00,VWS V14.01,2014-07-09 23:43:00,
2014-07-10 02:48:00,76.1,57.2,29.68,SSW,205,3.1,4.0,52,0.00,,---,0.00,VWS V14.01,2014-07-09 23:48:00,
2014-07-10 02:53:00,75.9,57.0,29.68,South,191,5.4,5.4,52,0.00,,---,0.00,VWS V14.01,2014-07-09 23:53:00,
2014-07-10 02:58:00,75.7,57.4,29.68,SSW,196,4.0,4.9,53,0.00,,---,0.00,VWS V14.01,2014-07-09 23:58:00,
2014-07-10 03:03:00,75.6,57.2,29.68,SSW,206,3.6,3.6,53,0.00,,---,0.00,VWS V14.01,2014-07-10 00:03:00,
2014-07-10 03:08:00,75.4,57.1,29.68,SW,222,4.9,4.9,53,0.00,,---,0.00,VWS V14.01,2014-07-10 00:08:00,
2014-07-10 03:13:00,75.4,57.1,29.68,SSW,196,0.0,0.0,53,0.00,,---,0.00,VWS V14.01,2014-07-10 00:13:00,
2014-07-10 03:18:00,75.4,57.1,29.68,South,188,0.0,0.0,53,0.00,,---,0.00,VWS V14.01,2014-07-10 00:18:00,
2014-07-10 03:23:00,75.2,56.9,29.68,SSW,199,0.0,0.0,53,0.00,,---,0.00,VWS V14.01,2014-07-10 00:23:00,
2014-07-10 03:28:00,75.2,56.9,29.68,SSE,153,3.1,6.3,53,0.00,,---,0.00,VWS V14.01,2014-07-10 00:28:00,
2014-07-10 03:33:00,75.2,56.4,29.68,South,170,0.0,0.0,52,0.00,,---,0.00,VWS V14.01,2014-07-10 00:33:00,
2014-07-10 03:38:00,75.2,56.4,29.68,South,169,0.0,4.0,52,0.00,,---,0.00,VWS V14.01,2014-07-10 00:38:00,
2014-07-10 03:43:00,75.2,56.4,29.68,South,187,4.0,4.5,52,0.00,,---,0.00,VWS V14.01,2014-07-10 00:43:00,
2014-07-10 03:48:00,75.0,56.8,29.68,South,189,4.9,4.9,53,0.00,,---,0.00,VWS V14.01,2014-07-10 00:48:00,
2014-07-10 03:53:00,74.8,57.1,29.65,SSE,158,2.7,6.3,54,0.00,,---,0.00,VWS V14.01,2014-07-10 00:53:00,
2014-07-10 03:58:00,74.8,57.6,29.65,ESE,120,3.1,6.3,55,0.00,,---,0.00,VWS V14.01,2014-07-10 00:58:00,
2014-07-10 04:03:00,74.8,57.1,29.65,SSE,158,0.0,0.0,54,0.00,,---,0.00,VWS V14.01,2014-07-10 01:03:00,
2014-07-10 04:08:00,74.8,57.1,29.65,SSW,196,3.6,3.6,54,0.00,,---,0.00,VWS V14.01,2014-07-10 01:08:00,
2014-07-10 04:13:00,74.7,56.9,29.65,South,175,0.0,3.6,54,0.00,,---,0.00,VWS V14.01,2014-07-10 01:13:00,
2014-07-10 04:18:00,74.8,57.1,29.65,SSW,211,3.6,4.9,54,0.00,,---,0.00,VWS V14.01,2014-07-10 01:18:00,
2014-07-10 04:23:00,74.7,56.9,29.65,SSW,194,2.2,4.0,54,0.00,,---,0.00,VWS V14.01,2014-07-10 01:23:00,
2014-07-10 04:28:00,74.7,56.4,29.65,SSW,210,5.4,6.3,53,0.00,,---,0.00,VWS V14.01,2014-07-10 01:28:00,
2014-07-10 04:33:00,74.5,56.2,29.65,SSW,210,5.4,5.8,53,0.00,,---,0.00,VWS V14.01,2014-07-10 01:33:00,
2014-07-10 04:38:00,74.3,56.1,29.65,South,178,3.1,5.4,53,0.00,,---,0.00,VWS V14.01,2014-07-10 01:38:00,
2014-07-10 04:43:00,74.1,55.9,29.65,SW,217,5.4,6.3,53,0.00,,---,0.00,VWS V14.01,2014-07-10 01:43:00,
2014-07-10 04:48:00,73.9,55.8,29.65,SSW,193,5.4,5.8,53,0.00,,---,0.00,VWS V14.01,2014-07-10 01:48:00,
2014-07-10 04:53:00,73.9,55.8,29.65,SSW,209,5.4,5.4,53,0.00,,---,0.00,VWS V14.01,2014-07-10 01:53:00,
2014-07-10 04:58:00,73.9,55.8,29.65,SSW,199,4.0,5.8,53,0.00,,---,0.00,VWS V14.01,2014-07-10 01:58:00,
2014-07-10 05:03:00,74.1,55.9,29.65,South,187,3.1,6.3,53,0.00,,---,0.00,VWS V14.01,2014-07-10 02:03:00,
2014-07-10 05:08:00,74.5,56.2,29.65,South,184,5.4,5.8,53,0.00,,---,0.00,VWS V14.01,2014-07-10 02:08:00,
2014-07-10 05:13:00,74.8,56.6,29.65,SSW,196,2.7,5.4,53,0.00,,---,0.00,VWS V14.01,2014-07-10 02:13:00,
2014-07-10 05:18:00,75.0,56.8,29.65,SSW,205,4.0,4.0,53,0.00,,---,0.00,VWS V14.01,2014-07-10 02:18:00,
2014-07-10 05:23:00,75.0,56.2,29.65,SW,236,3.1,3.6,52,0.00,,---,0.00,VWS V14.01,2014-07-10 02:23:00,
2014-07-10 05:28:00,74.8,56.0,29.65,SSW,209,6.3,6.3,52,0.00,,---,0.00,VWS V14.01,2014-07-10 02:28:00,
2014-07-10 05:33:00,74.8,56.0,29.65,South,185,2.7,3.6,52,0.00,,---,0.00,VWS V14.01,2014-07-10 02:33:00,
2014-07-10 05:38:00,74.7,55.3,29.65,SW,223,0.0,0.0,51,0.00,,---,0.00,VWS V14.01,2014-07-10 02:38:00,
2014-07-10 05:43:00,74.7,55.3,29.65,SSW,197,2.7,4.0,51,0.00,,---,0.00,VWS V14.01,2014-07-10 02:43:00,
2014-07-10 05:48:00,74.5,55.2,29.65,SSW,213,2.7,5.4,51,0.00,,---,0.00,VWS V14.01,2014-07-10 02:48:00,
2014-07-10 05:53:00,74.5,55.2,29.65,SSW,202,0.0,0.0,51,0.00,,---,0.00,VWS V14.01,2014-07-10 02:53:00,
2014-07-10 05:58:00,74.3,55.0,29.65,South,183,0.0,0.0,51,0.00,,---,0.00,VWS V14.01,2014-07-10 02:58:00,
2014-07-10 06:03:00,74.3,55.0,29.65,SSW,208,3.6,4.0,51,0.00,,---,0.00,VWS V14.01,2014-07-10 03:03:00,
2014-07-10 06:08:00,74.1,54.9,29.68,SSW,202,2.7,4.0,51,0.00,,---,0.00,VWS V14.01,2014-07-10 03:08:00,
2014-07-10 06:13:00,74.1,54.9,29.68,SSW,206,4.0,5.4,51,0.00,,---,0.00,VWS V14.01,2014-07-10 03:13:00,
2014-07-10 06:18:00,73.9,54.2,29.68,SSW,205,4.0,4.0,50,0.00,,---,0.00,VWS V14.01,2014-07-10 03:18:00,
2014-07-10 06:24:00,73.8,54.5,29.68,SSW,202,3.1,4.9,51,0.00,,---,0.00,VWS V14.01,2014-07-10 03:24:00,
2014-07-10 06:30:00,73.8,54.5,29.68,SSW,205,4.0,4.0,51,0.00,,---,0.00,VWS V14.01,2014-07-10 03:30:00,
2014-07-10 06:35:00,73.8,54.5,29.68,SSW,211,2.7,3.6,51,0.00,,---,0.00,VWS V14.01,2014-07-10 03:35:00,
2014-07-10 06:40:00,73.8,54.5,29.68,SSW,207,3.1,3.6,51,0.00,,---,0.00,VWS V14.01,2014-07-10 03:40:00,
2014-07-10 06:45:00,73.9,54.7,29.68,SSW,209,0.0,0.0,51,0.00,,---,0.00,VWS V14.01,2014-07-10 03:45:00,
2014-07-10 06:51:00,74.1,54.9,29.68,SSW,199,0.0,0.0,51,0.00,,---,0.00,VWS V14.01,2014-07-10 03:51:00,
2014-07-10 06:56:00,74.3,55.0,29.68,SSW,196,0.0,0.0,51,0.00,,---,0.00,VWS V14.01,2014-07-10 03:56:00,
2014-07-10 07:01:00,74.5,55.2,29.68,SSW,210,0.0,2.7,51,0.00,,---,0.00,VWS V14.01,2014-07-10 04:01:00,
2014-07-10 07:02:00,74.5,55.2,29.68,South,173,4.5,4.5,51,0.00,,---,0.00,VWS V14.01,2014-07-10 04:02:00,
2014-07-10 07:03:00,74.7,55.3,29.68,South,189,2.7,5.8,51,0.00,,---,0.00,VWS V14.01,2014-07-10 04:03:00,
2014-07-10 07:04:00,74.7,55.3,29.68,South,182,0.0,2.7,51,0.00,,---,0.00,VWS V14.01,2014-07-10 04:04:00,
2014-07-10 07:06:00,74.8,55.5,29.68,SSW,197,0.0,0.0,51,0.00,,---,0.00,VWS V14.01,2014-07-10 04:06:00,
2014-07-10 07:11:00,75.0,54.6,29.68,SSW,211,3.1,4.0,49,0.00,,---,0.00,VWS V14.01,2014-07-10 04:11:00,
2014-07-10 07:16:00,75.2,54.8,29.68,South,190,4.0,4.0,49,0.00,,---,0.00,VWS V14.01,2014-07-10 04:16:00,
2014-07-10 07:22:00,75.4,54.3,29.68,SSW,202,4.0,4.0,48,0.00,,---,0.00,VWS V14.01,2014-07-10 04:22:00,
2014-07-10 07:27:00,75.7,54.7,29.68,SSW,208,0.0,0.0,48,0.00,,---,0.00,VWS V14.01,2014-07-10 04:27:00,
2014-07-10 07:33:00,76.1,54.4,29.68,SSW,208,0.0,0.0,47,0.00,,---,0.00,VWS V14.01,2014-07-10 04:33:00,
2014-07-10 07:38:00,76.5,54.8,29.68,SW,217,0.0,0.0,47,0.00,,---,0.00,VWS V14.01,2014-07-10 04:38:00,
2014-07-10 07:44:00,76.8,55.1,29.68,SSW,207,0.0,0.0,47,0.00,,---,0.00,VWS V14.01,2014-07-10 04:44:00,
2014-07-10 07:49:00,77.0,54.7,29.68,SSW,203,0.0,2.7,46,0.00,,---,0.00,VWS V14.01,2014-07-10 04:49:00,
2014-07-10 07:55:00,77.4,55.0,29.68,SW,232,3.1,5.4,46,0.00,,---,0.00,VWS V14.01,2014-07-10 04:55:00,
2014-07-10 08:01:00,77.4,54.4,29.68,SSW,193,3.6,4.0,45,0.00,,---,0.00,VWS V14.01,2014-07-10 05:01:00,
2014-07-10 08:06:00,77.5,54.5,29.68,SSW,213,3.1,5.4,45,0.00,,---,0.00,VWS V14.01,2014-07-10 05:06:00,
2014-07-10 08:13:00,77.7,54.7,29.68,SSW,212,2.7,4.9,45,0.00,,---,0.00,VWS V14.01,2014-07-10 05:13:00,
2014-07-10 08:18:00,77.7,54.7,29.68,SW,230,0.0,3.6,45,0.00,,---,0.00,VWS V14.01,2014-07-10 05:18:00,
2014-07-10 08:23:00,78.1,55.0,29.68,SW,234,4.0,5.4,45,0.00,,---,0.00,VWS V14.01,2014-07-10 05:23:00,
2014-07-10 08:29:00,78.1,54.4,29.68,SW,235,5.8,6.7,44,0.00,,---,0.00,VWS V14.01,2014-07-10 05:29:00,
2014-07-10 08:34:00,78.3,54.6,29.68,WSW,240,6.3,7.6,44,0.00,,---,0.00,VWS V14.01,2014-07-10 05:34:00,
2014-07-10 08:40:00,78.4,54.7,29.71,SSW,209,4.0,7.6,44,0.00,,---,0.00,VWS V14.01,2014-07-10 05:40:00,
2014-07-10 08:45:00,78.8,54.4,29.71,SW,217,0.0,0.0,43,0.00,,---,0.00,VWS V14.01,2014-07-10 05:45:00,
2014-07-10 08:50:00,79.2,54.8,29.71,SSW,206,7.6,7.6,43,0.00,,---,0.00,VWS V14.01,2014-07-10 05:50:00,
2014-07-10 08:55:00,79.2,54.8,29.71,WSW,256,3.1,5.8,43,0.00,,---,0.00,VWS V14.01,2014-07-10 05:55:00,
2014-07-10 09:01:00,79.7,55.2,29.71,SSW,210,6.3,6.3,43,0.00,,---,0.00,VWS V14.01,2014-07-10 06:01:00,
2014-07-10 09:07:00,79.7,55.2,29.71,WSW,238,0.0,2.7,43,0.00,,---,0.00,VWS V14.01,2014-07-10 06:07:00,
2014-07-10 09:12:00,80.1,55.6,29.71,SSW,200,5.4,5.4,43,0.00,,---,0.00,VWS V14.01,2014-07-10 06:12:00,
2014-07-10 09:17:00,80.2,55.1,29.71,West,269,3.1,4.9,42,0.00,,---,0.00,VWS V14.01,2014-07-10 06:17:00,
2014-07-10 09:23:00,80.6,55.4,29.71,SW,233,0.0,4.0,42,0.00,,---,0.00,VWS V14.01,2014-07-10 06:23:00,
2014-07-10 09:29:00,80.8,55.6,29.71,WSW,254,0.0,2.2,42,0.00,,---,0.00,VWS V14.01,2014-07-10 06:29:00,
2014-07-10 09:35:00,80.8,55.6,29.71,WSW,256,6.3,6.3,42,0.00,,---,0.00,VWS V14.01,2014-07-10 06:35:00,
2014-07-10 09:40:00,81.0,55.1,29.71,SW,232,0.0,5.8,41,0.00,,---,0.00,VWS V14.01,2014-07-10 06:40:00,
2014-07-10 09:46:00,81.0,55.7,29.71,SSW,205,6.7,7.6,42,0.00,,---,0.00,VWS V14.01,2014-07-10 06:46:00,
2014-07-10 09:51:00,81.1,55.2,29.71,SSW,193,4.0,5.8,41,0.00,,---,0.00,VWS V14.01,2014-07-10 06:51:00,
2014-07-10 09:56:00,81.5,55.5,29.71,SSW,200,6.3,7.6,41,0.00,,---,0.00,VWS V14.01,2014-07-10 06:56:00,
2014-07-10 10:01:00,81.5,55.5,29.71,SW,220,0.0,4.0,41,0.00,,---,0.00,VWS V14.01,2014-07-10 07:01:00,
2014-07-10 10:07:00,81.7,55.7,29.71,SW,217,0.0,6.3,41,0.00,,---,0.00,VWS V14.01,2014-07-10 07:07:00,
2014-07-10 10:12:00,82.0,56.0,29.71,SSW,209,5.8,6.3,41,0.00,,---,0.00,VWS V14.01,2014-07-10 07:12:00,
2014-07-10 10:18:00,82.2,56.2,29.71,SW,229,5.4,5.4,41,0.00,,---,0.00,VWS V14.01,2014-07-10 07:18:00,
2014-07-10 10:24:00,82.6,55.8,29.71,SW,218,2.7,8.1,40,0.00,,---,0.00,VWS V14.01,2014-07-10 07:24:00,
2014-07-10 10:29:00,83.1,56.3,29.71,WSW,244,5.8,5.8,40,0.00,,---,0.00,VWS V14.01,2014-07-10 07:29:00,
2014-07-10 10:35:00,83.1,55.6,29.71,WSW,242,5.8,7.2,39,0.00,,---,0.00,VWS V14.01,2014-07-10 07:35:00,
2014-07-10 10:40:00,83.1,54.9,29.71,SW,217,0.0,0.0,38,0.00,,---,0.00,VWS V14.01,2014-07-10 07:40:00,
2014-07-10 10:46:00,83.5,54.5,29.71,SW,228,7.6,7.6,37,0.00,,---,0.00,VWS V14.01,2014-07-10 07:46:00,
2014-07-10 10:52:00,83.8,54.8,29.71,SSW,206,6.3,6.3,37,0.00,,---,0.00,VWS V14.01,2014-07-10 07:52:00,
2014-07-10 10:58:00,83.8,54.1,29.71,WSW,240,3.6,8.1,36,0.00,,---,0.00,VWS V14.01,2014-07-10 07:58:00,
2014-07-10 11:04:00,84.0,54.2,29.71,SW,221,3.1,4.9,36,0.00,,---,0.00,VWS V14.01,2014-07-10 08:04:00,
2014-07-10 11:10:00,84.4,53.8,29.71,SSW,205,5.8,7.6,35,0.00,,---,0.00,VWS V14.01,2014-07-10 08:10:00,
2014-07-10 11:15:00,84.2,53.6,29.71,SSW,203,4.0,6.3,35,0.00,,---,0.00,VWS V14.01,2014-07-10 08:15:00,
2014-07-10 11:21:00,84.6,53.1,29.71,SW,216,6.3,6.3,34,0.00,,---,0.00,VWS V14.01,2014-07-10 08:21:00,
2014-07-10 11:27:00,84.9,53.5,29.71,SW,216,2.2,7.6,34,0.00,,---,0.00,VWS V14.01,2014-07-10 08:27:00,
2014-07-10 11:32:00,85.3,53.0,29.71,SW,231,7.6,11.0,33,0.00,,---,0.00,VWS V14.01,2014-07-10 08:32:00,
2014-07-10 11:37:00,85.3,53.0,29.71,SW,215,8.7,10.5,33,0.00,,---,0.00,VWS V14.01,2014-07-10 08:37:00,
2014-07-10 11:43:00,85.3,52.1,29.71,SW,219,8.3,8.3,32,0.00,,---,0.00,VWS V14.01,2014-07-10 08:43:00,
2014-07-10 11:49:00,85.8,52.6,29.71,WSW,243,8.1,8.1,32,0.00,,---,0.00,VWS V14.01,2014-07-10 08:49:00,
2014-07-10 11:55:00,86.2,52.0,29.71,SW,218,8.3,8.3,31,0.00,,---,0.00,VWS V14.01,2014-07-10 08:55:00,
2014-07-10 12:00:00,86.5,52.3,29.71,SW,214,6.3,6.3,31,0.00,,---,0.00,VWS V14.01,2014-07-10 09:00:00,
2014-07-10 12:06:00,86.5,52.3,29.71,SSE,153,8.1,8.1,31,0.00,,---,0.00,VWS V14.01,2014-07-10 09:06:00,
2014-07-10 12:11:00,86.7,52.5,29.71,SSW,195,8.7,8.7,31,0.00,,---,0.00,VWS V14.01,2014-07-10 09:11:00,
2014-07-10 12:16:00,86.9,51.8,29.71,SW,215,7.6,8.3,30,0.00,,---,0.00,VWS V14.01,2014-07-10 09:16:00,
2014-07-10 12:22:00,87.3,52.1,29.71,SSW,208,6.3,8.3,30,0.00,,---,0.00,VWS V14.01,2014-07-10 09:22:00,
2014-07-10 12:27:00,87.3,50.2,29.71,SW,216,7.6,8.3,28,0.00,,---,0.00,VWS V14.01,2014-07-10 09:27:00,
2014-07-10 12:32:00,87.4,47.3,29.71,South,188,8.3,11.0,25,0.00,,---,0.00,VWS V14.01,2014-07-10 09:32:00,
2014-07-10 12:38:00,87.8,47.6,29.68,SSW,200,6.3,9.6,25,0.00,,---,0.00,VWS V14.01,2014-07-10 09:38:00,
2014-07-10 12:43:00,87.8,47.6,29.68,South,178,4.0,8.1,25,0.00,,---,0.00,VWS V14.01,2014-07-10 09:43:00,
2014-07-10 12:49:00,88.3,48.1,29.68,WSW,240,5.4,8.7,25,0.00,,---,0.00,VWS V14.01,2014-07-10 09:49:00,
2014-07-10 12:54:00,88.5,44.9,29.68,WSW,254,7.6,10.5,22,0.00,,---,0.00,VWS V14.01,2014-07-10 09:54:00,
2014-07-10 13:00:00,88.9,48.5,29.68,West,272,8.1,8.1,25,0.00,,---,0.00,VWS V14.01,2014-07-10 10:00:00,
2014-07-10 13:05:00,89.1,45.3,29.68,SW,229,4.9,8.7,22,0.00,,---,0.00,VWS V14.01,2014-07-10 10:05:00,
2014-07-10 13:11:00,89.1,45.3,29.68,WSW,249,8.1,8.3,22,0.00,,---,0.00,VWS V14.01,2014-07-10 10:11:00,
2014-07-10 13:16:00,89.1,45.3,29.68,SW,220,8.1,8.3,22,0.00,,---,0.00,VWS V14.01,2014-07-10 10:16:00,
2014-07-10 13:21:00,89.2,45.5,29.68,SW,229,7.6,10.5,22,0.00,,---,0.00,VWS V14.01,2014-07-10 10:21:00,
2014-07-10 13:27:00,90.0,46.1,29.68,WSW,255,10.1,12.8,22,0.00,,---,0.00,VWS V14.01,2014-07-10 10:27:00,
2014-07-10 13:32:00,90.1,46.2,29.68,WNW,303,8.1,11.0,22,0.00,,---,0.00,VWS V14.01,2014-07-10 10:32:00,
2014-07-10 13:38:00,90.3,46.3,29.68,West,261,13.2,14.1,22,0.00,,---,0.00,VWS V14.01,2014-07-10 10:38:00,
2014-07-10 13:43:00,90.1,46.2,29.68,WSW,250,8.1,11.0,22,0.00,,---,0.00,VWS V14.01,2014-07-10 10:43:00,
2014-07-10 13:49:00,90.5,46.5,29.68,WNW,286,8.7,11.4,22,0.00,,---,0.00,VWS V14.01,2014-07-10 10:49:00,
2014-07-10 13:55:00,90.7,46.7,29.68,West,274,5.8,11.0,22,0.00,,---,0.00,VWS V14.01,2014-07-10 10:55:00,
2014-07-10 14:00:00,90.9,46.8,29.68,West,271,12.3,13.2,22,0.00,,---,0.00,VWS V14.01,2014-07-10 11:00:00,
2014-07-10 14:07:00,90.7,46.7,29.68,SW,233,10.5,11.0,22,0.00,,---,0.00,VWS V14.01,2014-07-10 11:07:00,
2014-07-10 14:12:00,90.1,46.2,29.68,WSW,249,10.5,13.2,22,0.00,,---,0.00,VWS V14.01,2014-07-10 11:12:00,
2014-07-10 14:17:00,89.8,48.2,29.68,SW,235,8.3,10.1,24,0.00,,---,0.00,VWS V14.01,2014-07-10 11:17:00,
2014-07-10 14:23:00,90.0,48.4,29.68,SW,233,5.8,11.4,24,0.00,,---,0.00,VWS V14.01,2014-07-10 11:23:00,
2014-07-10 14:28:00,90.3,48.7,29.68,WSW,256,9.6,11.0,24,0.00,,---,0.00,VWS V14.01,2014-07-10 11:28:00,
2014-07-10 14:34:00,90.3,46.3,29.68,SSE,167,4.9,8.7,22,0.00,,---,0.00,VWS V14.01,2014-07-10 11:34:00,
2014-07-10 14:40:00,90.1,46.2,29.68,South,179,8.3,13.2,22,0.00,,---,0.00,VWS V14.01,2014-07-10 11:40:00,
2014-07-10 14:45:00,90.1,46.2,29.68,WSW,241,3.6,8.1,22,0.00,,---,0.00,VWS V14.01,2014-07-10 11:45:00,
2014-07-10 14:50:00,90.1,48.5,29.68,WSW,249,9.6,9.6,24,0.00,,---,0.00,VWS V14.01,2014-07-10 11:50:00,
2014-07-10 14:55:00,90.1,46.2,29.68,SW,219,8.7,9.2,22,0.00,,---,0.00,VWS V14.01,2014-07-10 11:55:00,
2014-07-10 15:00:00,90.7,46.7,29.68,SSW,212,8.1,8.7,22,0.00,,---,0.00,VWS V14.01,2014-07-10 12:00:00,
2014-07-10 15:06:00,90.5,48.8,29.68,SSW,203,8.3,10.1,24,0.00,,---,0.00,VWS V14.01,2014-07-10 12:06:00,
2014-07-10 15:12:00,90.1,48.5,29.68,SSW,211,7.6,8.3,24,0.00,,---,0.00,VWS V14.01,2014-07-10 12:12:00,
2014-07-10 15:17:00,89.6,48.1,29.68,WSW,239,8.3,8.7,24,0.00,,---,0.00,VWS V14.01,2014-07-10 12:17:00,
2014-07-10 15:24:00,89.4,49.0,29.68,SW,227,10.1,10.5,25,0.00,,---,0.00,VWS V14.01,2014-07-10 12:24:00,
2014-07-10 15:29:00,89.2,48.8,29.68,SSE,148,12.8,12.8,25,0.00,,---,0.00,VWS V14.01,2014-07-10 12:29:00,
2014-07-10 15:34:00,89.2,50.9,29.68,SSW,210,13.2,14.1,27,0.00,,---,0.00,VWS V14.01,2014-07-10 12:34:00,
2014-07-10 15:40:00,89.2,48.8,29.65,South,180,8.7,10.5,25,0.00,,---,0.00,VWS V14.01,2014-07-10 12:40:00,
2014-07-10 15:45:00,88.7,50.5,29.65,SSW,208,7.2,8.1,27,0.00,,---,0.00,VWS V14.01,2014-07-10 12:45:00,
2014-07-10 15:51:00,88.5,53.2,29.65,SW,231,7.6,13.2,30,0.00,,---,0.00,VWS V14.01,2014-07-10 12:51:00,
2014-07-10 15:56:00,88.5,53.2,29.65,SSW,200,3.6,6.3,30,0.00,,---,0.00,VWS V14.01,2014-07-10 12:56:00,
2014-07-10 16:02:00,88.5,53.2,29.65,South,191,5.4,9.6,30,0.00,,---,0.00,VWS V14.01,2014-07-10 13:02:00,
2014-07-10 16:07:00,88.5,54.1,29.65,SSW,211,6.7,12.8,31,0.00,,---,0.00,VWS V14.01,2014-07-10 13:07:00,
2014-07-10 16:12:00,88.3,53.9,29.65,South,187,10.5,11.4,31,0.00,,---,0.00,VWS V14.01,2014-07-10 13:12:00,
2014-07-10 16:18:00,87.8,53.4,29.65,SW,220,8.7,8.7,31,0.00,,---,0.00,VWS V14.01,2014-07-10 13:18:00,
2014-07-10 16:23:00,88.0,53.6,29.65,SW,235,8.7,10.1,31,0.00,,---,0.00,VWS V14.01,2014-07-10 13:23:00,
2014-07-10 16:29:00,87.6,53.3,29.65,SSW,196,8.3,8.3,31,0.00,,---,0.00,VWS V14.01,2014-07-10 13:29:00,
2014-07-10 16:34:00,88.2,53.7,29.65,WSW,237,8.7,8.7,31,0.00,,---,0.00,VWS V14.01,2014-07-10 13:34:00,
2014-07-10 16:40:00,88.0,53.6,29.65,WSW,238,5.4,9.6,31,0.00,,---,0.00,VWS V14.01,2014-07-10 13:40:00,
2014-07-10 16:46:00,87.6,53.3,29.65,WSW,247,8.7,11.0,31,0.00,,---,0.00,VWS V14.01,2014-07-10 13:46:00,
2014-07-10 16:51:00,87.4,53.1,29.65,SSW,206,7.6,11.0,31,0.00,,---,0.00,VWS V14.01,2014-07-10 13:51:00,
2014-07-10 16:57:00,87.3,53.0,29.68,West,277,7.6,9.6,31,0.00,,---,0.00,VWS V14.01,2014-07-10 13:57:00,
2014-07-10 17:03:00,87.6,53.3,29.68,SSW,212,7.6,8.3,31,0.00,,---,0.00,VWS V14.01,2014-07-10 14:03:00,
2014-07-10 17:08:00,87.4,54.0,29.68,WSW,242,3.1,8.3,32,0.00,,---,0.00,VWS V14.01,2014-07-10 14:08:00,
2014-07-10 17:14:00,87.3,54.7,29.68,WSW,237,5.4,6.3,33,0.00,,---,0.00,VWS V14.01,2014-07-10 14:14:00,
2014-07-10 17:19:00,87.3,54.7,29.68,SSW,207,8.3,8.3,33,0.00,,---,0.00,VWS V14.01,2014-07-10 14:19:00,
2014-07-10 17:26:00,86.9,55.2,29.68,SW,224,7.6,11.0,34,0.00,,---,0.00,VWS V14.01,2014-07-10 14:26:00,
2014-07-10 17:31:00,86.7,55.8,29.68,SW,224,5.4,5.4,35,0.00,,---,0.00,VWS V14.01,2014-07-10 14:31:00,
2014-07-10 17:36:00,86.2,54.5,29.68,WSW,253,9.6,9.6,34,0.00,,---,0.00,VWS V14.01,2014-07-10 14:36:00,
2014-07-10 17:42:00,86.2,54.5,29.68,SSW,209,13.2,13.2,34,0.00,,---,0.00,VWS V14.01,2014-07-10 14:42:00,
2014-07-10 17:47:00,85.3,53.0,29.68,West,263,5.8,12.8,33,0.00,,---,0.00,VWS V14.01,2014-07-10 14:47:00,
2014-07-10 17:53:00,85.1,52.8,29.68,SSW,209,10.1,11.0,33,0.00,,---,0.00,VWS V14.01,2014-07-10 14:53:00,
2014-07-10 17:58:00,84.9,52.6,29.68,WSW,255,5.4,9.2,33,0.00,,---,0.00,VWS V14.01,2014-07-10 14:58:00,
2014-07-10 18:04:00,84.9,50.9,29.68,SW,214,10.5,13.2,31,0.00,,---,0.00,VWS V14.01,2014-07-10 15:04:00,
2014-07-10 18:09:00,84.9,51.8,29.65,SW,232,10.1,11.0,32,0.00,,---,0.00,VWS V14.01,2014-07-10 15:09:00,
2014-07-10 18:14:00,84.9,51.8,29.65,SW,236,5.8,5.8,32,0.00,,---,0.00,VWS V14.01,2014-07-10 15:14:00,
2014-07-10 18:20:00,85.3,52.1,29.65,SW,226,3.1,6.3,32,0.00,,---,0.00,VWS V14.01,2014-07-10 15:20:00,
2014-07-10 18:25:00,85.6,51.6,29.65,WSW,242,5.4,6.3,31,0.00,,---,0.00,VWS V14.01,2014-07-10 15:25:00,
2014-07-10 18:31:00,85.8,51.7,29.65,NW,307,4.9,6.3,31,0.00,,---,0.00,VWS V14.01,2014-07-10 15:31:00,
2014-07-10 18:36:00,85.8,51.7,29.65,West,272,3.6,5.8,31,0.00,,---,0.00,VWS V14.01,2014-07-10 15:36:00,
2014-07-10 18:42:00,86.0,51.9,29.65,West,265,5.8,5.8,31,0.00,,---,0.00,VWS V14.01,2014-07-10 15:42:00,
2014-07-10 18:47:00,86.2,52.0,29.65,SW,230,2.7,4.9,31,0.00,,---,0.00,VWS V14.01,2014-07-10 15:47:00,
2014-07-10 18:53:00,86.4,52.2,29.65,West,268,6.3,9.6,31,0.00,,---,0.00,VWS V14.01,2014-07-10 15:53:00,
2014-07-10 18:58:00,86.2,52.0,29.65,WNW,302,5.4,5.4,31,0.00,,---,0.00,VWS V14.01,2014-07-10 15:58:00,
2014-07-10 19:04:00,86.0,51.9,29.65,SSW,206,5.8,8.1,31,0.00,,---,0.00,VWS V14.01,2014-07-10 16:04:00,
2014-07-10 19:09:00,85.5,52.3,29.65,SSW,211,4.9,8.1,32,0.00,,---,0.00,VWS V14.01,2014-07-10 16:09:00,
2014-07-10 19:14:00,85.1,52.0,29.65,SSW,195,5.4,6.3,32,0.00,,---,0.00,VWS V14.01,2014-07-10 16:14:00,
2014-07-10 19:19:00,84.7,50.8,29.65,SW,224,3.6,6.3,31,0.00,,---,0.00,VWS V14.01,2014-07-10 16:19:00,
2014-07-10 19:25:00,84.7,50.8,29.65,SSW,208,6.7,6.7,31,0.00,,---,0.00,VWS V14.01,2014-07-10 16:25:00,
2014-07-10 19:30:00,84.7,50.8,29.65,WSW,256,5.8,6.3,31,0.00,,---,0.00,VWS V14.01,2014-07-10 16:30:00,
2014-07-10 19:35:00,84.7,50.8,29.65,SW,216,3.1,3.1,31,0.00,,---,0.00,VWS V14.01,2014-07-10 16:35:00,
2014-07-10 19:41:00,84.7,50.8,29.65,WSW,257,5.8,8.1,31,0.00,,---,0.00,VWS V14.01,2014-07-10 16:41:00,
2014-07-10 19:46:00,84.4,50.5,29.65,West,267,7.6,7.6,31,0.00,,---,0.00,VWS V14.01,2014-07-10 16:46:00,
2014-07-10 19:51:00,84.2,50.3,29.65,SSW,208,5.8,6.3,31,0.00,,---,0.00,VWS V14.01,2014-07-10 16:51:00,
2014-07-10 19:56:00,84.0,51.0,29.68,SW,227,8.1,8.1,32,0.00,,---,0.00,VWS V14.01,2014-07-10 16:56:00,
2014-07-10 20:01:00,83.7,50.7,29.68,South,180,6.3,8.3,32,0.00,,---,0.00,VWS V14.01,2014-07-10 17:01:00,
2014-07-10 20:07:00,83.5,50.5,29.68,SW,222,5.4,7.2,32,0.00,,---,0.00,VWS V14.01,2014-07-10 17:07:00,
2014-07-10 20:12:00,83.1,50.2,29.68,SSW,206,4.9,6.3,32,0.00,,---,0.00,VWS V14.01,2014-07-10 17:12:00,
2014-07-10 20:17:00,82.9,50.1,29.68,WSW,239,4.0,6.3,32,0.00,,---,0.00,VWS V14.01,2014-07-10 17:17:00,
2014-07-10 20:22:00,82.8,49.9,29.68,SSW,208,4.0,9.2,32,0.00,,---,0.00,VWS V14.01,2014-07-10 17:22:00,